sensor_id;sensor_type;location;lat;lon;timestamp;P1;durP1;ratioP1;P2;durP2;ratioP2
72715;SDS011;60830;64.560;40.542;2022-10-16T00:01:14;11.15;;;7.93;;
72715;SDS011;60830;64.560;40.542;2022-10-16T00:03:41;6.10;;;4.78;;
72715;SDS011;60830;64.560;40.542;2022-10-16T00:06:08;12.00;;;5.22;;
72715;SDS011;60830;64.560;40.542;2022-10-16T00:08:35;8.20;;;5.95;;
72715;SDS011;60830;64.560;40.542;2022-10-16T00:11:06;10.30;;;6.78;;
72715;SDS011;60830;64.560;40.542;2022-10-16T00:13:32;8.65;;;6.25;;
72715;SDS011;60830;64.560;40.542;2022-10-16T00:15:59;4.57;;;3.58;;
72715;SDS011;60830;64.560;40.542;2022-10-16T00:18:26;11.25;;;6.63;;
72715;SDS011;60830;64.560;40.542;2022-10-16T00:20:52;8.38;;;5.60;;
72715;SDS011;60830;64.560;40.542;2022-10-16T00:23:37;10.10;;;6.75;;
72715;SDS011;60830;64.560;40.542;2022-10-16T00:26:05;8.50;;;6.43;;
72715;SDS011;60830;64.560;40.542;2022-10-16T00:28:31;8.88;;;6.35;;
72715;SDS011;60830;64.560;40.542;2022-10-16T00:30:57;12.85;;;8.20;;
72715;SDS011;60830;64.560;40.542;2022-10-16T00:33:24;9.57;;;6.45;;
72715;SDS011;60830;64.560;40.542;2022-10-16T00:35:51;13.60;;;8.52;;
72715;SDS011;60830;64.560;40.542;2022-10-16T00:38:17;9.52;;;6.30;;
72715;SDS011;60830;64.560;40.542;2022-10-16T00:40:43;12.63;;;7.30;;
72715;SDS011;60830;64.560;40.542;2022-10-16T00:43:13;7.43;;;5.70;;
72715;SDS011;60830;64.560;40.542;2022-10-16T00:45:40;8.60;;;6.57;;
72715;SDS011;60830;64.560;40.542;2022-10-16T00:48:07;8.82;;;7.40;;
72715;SDS011;60830;64.560;40.542;2022-10-16T00:50:36;9.73;;;6.53;;
72715;SDS011;60830;64.560;40.542;2022-10-16T00:53:03;4.80;;;4.35;;
72715;SDS011;60830;64.560;40.542;2022-10-16T00:55:29;7.80;;;5.25;;
72715;SDS011;60830;64.560;40.542;2022-10-16T00:57:56;9.15;;;6.40;;
72715;SDS011;60830;64.560;40.542;2022-10-16T01:00:24;10.60;;;5.82;;
72715;SDS011;60830;64.560;40.542;2022-10-16T01:02:54;7.53;;;5.30;;
72715;SDS011;60830;64.560;40.542;2022-10-16T01:05:24;9.52;;;6.18;;
72715;SDS011;60830;64.560;40.542;2022-10-16T01:13:01;8.60;;;6.07;;
72715;SDS011;60830;64.560;40.542;2022-10-16T01:20:30;7.25;;;4.72;;
72715;SDS011;60830;64.560;40.542;2022-10-16T01:25:28;4.97;;;3.60;;
72715;SDS011;60830;64.560;40.542;2022-10-16T01:27:56;8.98;;;4.20;;
72715;SDS011;60830;64.560;40.542;2022-10-16T01:30:24;6.75;;;5.50;;
72715;SDS011;60830;64.560;40.542;2022-10-16T01:33:02;7.85;;;5.43;;
72715;SDS011;60830;64.560;40.542;2022-10-16T01:35:35;8.38;;;6.07;;
72715;SDS011;60830;64.560;40.542;2022-10-16T01:40:28;8.50;;;5.78;;
72715;SDS011;60830;64.560;40.542;2022-10-16T01:42:57;8.10;;;5.97;;
72715;SDS011;60830;64.560;40.542;2022-10-16T01:45:25;9.05;;;6.38;;
72715;SDS011;60830;64.560;40.542;2022-10-16T01:47:51;6.43;;;3.97;;
72715;SDS011;60830;64.560;40.542;2022-10-16T01:50:19;9.60;;;5.97;;
72715;SDS011;60830;64.560;40.542;2022-10-16T01:52:46;9.30;;;6.13;;
72715;SDS011;60830;64.560;40.542;2022-10-16T01:55:16;6.57;;;4.25;;
72715;SDS011;60830;64.560;40.542;2022-10-16T01:57:44;5.88;;;4.68;;
72715;SDS011;60830;64.560;40.542;2022-10-16T02:00:12;7.93;;;5.88;;
72715;SDS011;60830;64.560;40.542;2022-10-16T02:02:40;8.38;;;5.07;;
72715;SDS011;60830;64.560;40.542;2022-10-16T02:05:12;6.75;;;5.45;;
72715;SDS011;60830;64.560;40.542;2022-10-16T02:07:41;6.65;;;4.82;;
72715;SDS011;60830;64.560;40.542;2022-10-16T02:10:08;6.63;;;5.00;;
72715;SDS011;60830;64.560;40.542;2022-10-16T02:12:35;4.97;;;3.90;;
72715;SDS011;60830;64.560;40.542;2022-10-16T02:15:02;10.15;;;6.57;;
72715;SDS011;60830;64.560;40.542;2022-10-16T02:17:28;8.73;;;6.18;;
72715;SDS011;60830;64.560;40.542;2022-10-16T02:19:55;6.18;;;3.80;;
72715;SDS011;60830;64.560;40.542;2022-10-16T02:22:24;8.32;;;6.55;;
72715;SDS011;60830;64.560;40.542;2022-10-16T02:24:54;8.80;;;4.82;;
72715;SDS011;60830;64.560;40.542;2022-10-16T02:27:27;7.35;;;5.85;;
72715;SDS011;60830;64.560;40.542;2022-10-16T02:29:55;5.88;;;4.35;;
72715;SDS011;60830;64.560;40.542;2022-10-16T02:32:25;8.50;;;4.35;;
72715;SDS011;60830;64.560;40.542;2022-10-16T02:34:54;6.70;;;4.68;;
72715;SDS011;60830;64.560;40.542;2022-10-16T02:37:20;9.38;;;6.15;;
72715;SDS011;60830;64.560;40.542;2022-10-16T02:39:46;3.30;;;2.88;;
72715;SDS011;60830;64.560;40.542;2022-10-16T02:42:13;7.40;;;4.18;;
72715;SDS011;60830;64.560;40.542;2022-10-16T02:44:40;7.03;;;5.20;;
72715;SDS011;60830;64.560;40.542;2022-10-16T02:47:06;6.80;;;4.72;;
72715;SDS011;60830;64.560;40.542;2022-10-16T02:49:32;7.13;;;4.72;;
72715;SDS011;60830;64.560;40.542;2022-10-16T02:51:58;8.35;;;5.97;;
72715;SDS011;60830;64.560;40.542;2022-10-16T02:54:24;5.65;;;3.35;;
72715;SDS011;60830;64.560;40.542;2022-10-16T02:56:50;5.38;;;3.55;;
72715;SDS011;60830;64.560;40.542;2022-10-16T02:59:17;5.25;;;3.80;;
72715;SDS011;60830;64.560;40.542;2022-10-16T03:01:43;7.10;;;4.43;;
72715;SDS011;60830;64.560;40.542;2022-10-16T03:04:09;6.60;;;3.78;;
72715;SDS011;60830;64.560;40.542;2022-10-16T03:06:36;7.07;;;5.65;;
72715;SDS011;60830;64.560;40.542;2022-10-16T03:09:02;7.53;;;5.20;;
72715;SDS011;60830;64.560;40.542;2022-10-16T03:11:28;3.33;;;2.83;;
72715;SDS011;60830;64.560;40.542;2022-10-16T03:13:54;4.97;;;3.30;;
72715;SDS011;60830;64.560;40.542;2022-10-16T03:16:20;7.45;;;4.45;;
72715;SDS011;60830;64.560;40.542;2022-10-16T03:18:49;7.25;;;4.05;;
72715;SDS011;60830;64.560;40.542;2022-10-16T03:21:15;5.47;;;4.15;;
72715;SDS011;60830;64.560;40.542;2022-10-16T03:23:42;7.25;;;4.80;;
72715;SDS011;60830;64.560;40.542;2022-10-16T03:26:08;7.75;;;4.93;;
72715;SDS011;60830;64.560;40.542;2022-10-16T03:28:34;6.22;;;4.22;;
72715;SDS011;60830;64.560;40.542;2022-10-16T03:31:00;6.45;;;5.20;;
72715;SDS011;60830;64.560;40.542;2022-10-16T03:33:26;6.60;;;4.85;;
72715;SDS011;60830;64.560;40.542;2022-10-16T03:35:53;8.45;;;5.13;;
72715;SDS011;60830;64.560;40.542;2022-10-16T03:38:20;7.13;;;4.38;;
72715;SDS011;60830;64.560;40.542;2022-10-16T03:40:46;10.75;;;5.68;;
72715;SDS011;60830;64.560;40.542;2022-10-16T03:43:12;9.73;;;5.55;;
72715;SDS011;60830;64.560;40.542;2022-10-16T03:45:38;5.50;;;4.80;;
72715;SDS011;60830;64.560;40.542;2022-10-16T03:48:04;6.80;;;4.15;;
72715;SDS011;60830;64.560;40.542;2022-10-16T03:50:30;11.02;;;6.03;;
72715;SDS011;60830;64.560;40.542;2022-10-16T03:52:56;5.57;;;4.22;;
72715;SDS011;60830;64.560;40.542;2022-10-16T03:55:22;4.95;;;3.83;;
72715;SDS011;60830;64.560;40.542;2022-10-16T03:57:48;3.95;;;3.58;;
72715;SDS011;60830;64.560;40.542;2022-10-16T04:00:14;7.53;;;4.93;;
72715;SDS011;60830;64.560;40.542;2022-10-16T04:02:41;5.05;;;4.38;;
72715;SDS011;60830;64.560;40.542;2022-10-16T04:05:07;8.73;;;4.95;;
72715;SDS011;60830;64.560;40.542;2022-10-16T04:07:33;8.50;;;4.85;;
72715;SDS011;60830;64.560;40.542;2022-10-16T04:09:59;9.00;;;6.43;;
72715;SDS011;60830;64.560;40.542;2022-10-16T04:12:25;9.80;;;4.45;;
72715;SDS011;60830;64.560;40.542;2022-10-16T04:14:51;8.57;;;4.80;;
72715;SDS011;60830;64.560;40.542;2022-10-16T04:17:17;10.20;;;5.18;;
72715;SDS011;60830;64.560;40.542;2022-10-16T04:19:43;5.90;;;3.65;;
72715;SDS011;60830;64.560;40.542;2022-10-16T04:22:10;7.60;;;4.88;;
72715;SDS011;60830;64.560;40.542;2022-10-16T04:24:36;9.68;;;5.40;;
72715;SDS011;60830;64.560;40.542;2022-10-16T04:27:02;5.53;;;4.13;;
72715;SDS011;60830;64.560;40.542;2022-10-16T04:29:28;8.63;;;5.90;;
72715;SDS011;60830;64.560;40.542;2022-10-16T04:31:54;10.90;;;5.70;;
72715;SDS011;60830;64.560;40.542;2022-10-16T04:34:20;9.93;;;6.35;;
72715;SDS011;60830;64.560;40.542;2022-10-16T04:36:47;9.50;;;5.15;;
72715;SDS011;60830;64.560;40.542;2022-10-16T04:39:15;6.50;;;4.97;;
72715;SDS011;60830;64.560;40.542;2022-10-16T04:41:41;6.00;;;4.78;;
72715;SDS011;60830;64.560;40.542;2022-10-16T04:44:07;8.27;;;5.85;;
72715;SDS011;60830;64.560;40.542;2022-10-16T04:46:33;7.22;;;5.38;;
72715;SDS011;60830;64.560;40.542;2022-10-16T04:49:00;10.98;;;6.32;;
72715;SDS011;60830;64.560;40.542;2022-10-16T04:51:26;12.45;;;5.97;;
72715;SDS011;60830;64.560;40.542;2022-10-16T04:53:53;12.35;;;7.22;;
72715;SDS011;60830;64.560;40.542;2022-10-16T04:56:20;11.25;;;5.22;;
72715;SDS011;60830;64.560;40.542;2022-10-16T04:58:47;5.15;;;4.45;;
72715;SDS011;60830;64.560;40.542;2022-10-16T05:01:13;8.20;;;5.90;;
72715;SDS011;60830;64.560;40.542;2022-10-16T05:03:39;7.65;;;5.78;;
72715;SDS011;60830;64.560;40.542;2022-10-16T05:06:06;8.82;;;5.28;;
72715;SDS011;60830;64.560;40.542;2022-10-16T05:08:32;7.90;;;5.07;;
72715;SDS011;60830;64.560;40.542;2022-10-16T05:10:58;7.50;;;4.18;;
72715;SDS011;60830;64.560;40.542;2022-10-16T05:13:24;8.20;;;5.13;;
72715;SDS011;60830;64.560;40.542;2022-10-16T05:15:50;8.50;;;4.60;;
72715;SDS011;60830;64.560;40.542;2022-10-16T05:18:16;7.68;;;4.38;;
72715;SDS011;60830;64.560;40.542;2022-10-16T05:20:42;8.80;;;6.13;;
72715;SDS011;60830;64.560;40.542;2022-10-16T05:23:08;8.55;;;5.25;;
72715;SDS011;60830;64.560;40.542;2022-10-16T05:25:36;8.80;;;6.45;;
72715;SDS011;60830;64.560;40.542;2022-10-16T05:28:02;7.07;;;5.45;;
72715;SDS011;60830;64.560;40.542;2022-10-16T05:30:28;6.63;;;4.47;;
72715;SDS011;60830;64.560;40.542;2022-10-16T05:32:54;7.35;;;5.53;;
72715;SDS011;60830;64.560;40.542;2022-10-16T05:35:20;4.07;;;3.38;;
72715;SDS011;60830;64.560;40.542;2022-10-16T05:37:47;11.50;;;7.18;;
72715;SDS011;60830;64.560;40.542;2022-10-16T05:40:13;11.90;;;5.68;;
72715;SDS011;60830;64.560;40.542;2022-10-16T05:42:39;10.02;;;5.60;;
72715;SDS011;60830;64.560;40.542;2022-10-16T05:45:06;12.98;;;7.07;;
72715;SDS011;60830;64.560;40.542;2022-10-16T05:47:32;12.38;;;7.38;;
72715;SDS011;60830;64.560;40.542;2022-10-16T05:49:58;16.40;;;8.98;;
72715;SDS011;60830;64.560;40.542;2022-10-16T05:52:24;10.40;;;6.00;;
72715;SDS011;60830;64.560;40.542;2022-10-16T05:54:52;14.63;;;9.40;;
72715;SDS011;60830;64.560;40.542;2022-10-16T05:57:18;10.70;;;8.18;;
72715;SDS011;60830;64.560;40.542;2022-10-16T05:59:44;10.52;;;5.45;;
72715;SDS011;60830;64.560;40.542;2022-10-16T06:02:12;9.10;;;5.95;;
72715;SDS011;60830;64.560;40.542;2022-10-16T06:04:38;12.43;;;6.70;;
72715;SDS011;60830;64.560;40.542;2022-10-16T06:07:04;10.85;;;4.53;;
72715;SDS011;60830;64.560;40.542;2022-10-16T06:09:30;12.73;;;7.32;;
72715;SDS011;60830;64.560;40.542;2022-10-16T06:11:56;12.18;;;6.70;;
72715;SDS011;60830;64.560;40.542;2022-10-16T06:14:22;11.80;;;6.72;;
72715;SDS011;60830;64.560;40.542;2022-10-16T06:16:48;9.55;;;6.68;;
72715;SDS011;60830;64.560;40.542;2022-10-16T06:19:14;13.73;;;7.47;;
72715;SDS011;60830;64.560;40.542;2022-10-16T06:21:42;15.43;;;7.97;;
72715;SDS011;60830;64.560;40.542;2022-10-16T06:24:08;11.45;;;6.85;;
72715;SDS011;60830;64.560;40.542;2022-10-16T06:26:34;16.13;;;9.18;;
72715;SDS011;60830;64.560;40.542;2022-10-16T06:29:00;17.55;;;8.73;;
72715;SDS011;60830;64.560;40.542;2022-10-16T06:31:27;13.13;;;7.03;;
72715;SDS011;60830;64.560;40.542;2022-10-16T06:33:56;13.63;;;5.90;;
72715;SDS011;60830;64.560;40.542;2022-10-16T06:36:22;14.77;;;7.13;;
72715;SDS011;60830;64.560;40.542;2022-10-16T06:38:48;10.00;;;6.03;;
72715;SDS011;60830;64.560;40.542;2022-10-16T06:41:15;8.32;;;6.82;;
72715;SDS011;60830;64.560;40.542;2022-10-16T06:43:42;14.60;;;7.35;;
72715;SDS011;60830;64.560;40.542;2022-10-16T06:46:11;16.08;;;8.98;;
72715;SDS011;60830;64.560;40.542;2022-10-16T06:48:38;15.70;;;7.95;;
72715;SDS011;60830;64.560;40.542;2022-10-16T06:51:05;15.85;;;8.55;;
72715;SDS011;60830;64.560;40.542;2022-10-16T06:53:32;18.10;;;9.80;;
72715;SDS011;60830;64.560;40.542;2022-10-16T06:56:06;14.05;;;7.40;;
72715;SDS011;60830;64.560;40.542;2022-10-16T06:58:32;16.83;;;8.10;;
72715;SDS011;60830;64.560;40.542;2022-10-16T07:00:58;13.98;;;7.90;;
72715;SDS011;60830;64.560;40.542;2022-10-16T07:03:24;14.07;;;6.43;;
72715;SDS011;60830;64.560;40.542;2022-10-16T07:05:50;12.25;;;8.13;;
72715;SDS011;60830;64.560;40.542;2022-10-16T07:08:16;15.85;;;9.05;;
72715;SDS011;60830;64.560;40.542;2022-10-16T07:10:43;9.75;;;7.93;;
72715;SDS011;60830;64.560;40.542;2022-10-16T07:13:09;13.32;;;7.18;;
72715;SDS011;60830;64.560;40.542;2022-10-16T07:15:38;11.50;;;7.53;;
72715;SDS011;60830;64.560;40.542;2022-10-16T07:18:05;10.77;;;8.68;;
72715;SDS011;60830;64.560;40.542;2022-10-16T07:20:31;15.60;;;8.52;;
72715;SDS011;60830;64.560;40.542;2022-10-16T07:22:57;12.05;;;6.07;;
72715;SDS011;60830;64.560;40.542;2022-10-16T07:25:23;11.57;;;6.53;;
72715;SDS011;60830;64.560;40.542;2022-10-16T07:27:49;11.35;;;6.75;;
72715;SDS011;60830;64.560;40.542;2022-10-16T07:30:15;11.93;;;7.05;;
72715;SDS011;60830;64.560;40.542;2022-10-16T07:32:41;10.43;;;7.00;;
72715;SDS011;60830;64.560;40.542;2022-10-16T07:35:07;8.00;;;5.60;;
72715;SDS011;60830;64.560;40.542;2022-10-16T07:37:33;6.25;;;4.28;;
72715;SDS011;60830;64.560;40.542;2022-10-16T07:40:00;12.10;;;7.35;;
72715;SDS011;60830;64.560;40.542;2022-10-16T07:42:26;11.43;;;5.60;;
72715;SDS011;60830;64.560;40.542;2022-10-16T07:44:53;9.88;;;6.68;;
72715;SDS011;60830;64.560;40.542;2022-10-16T07:47:19;10.93;;;7.35;;
72715;SDS011;60830;64.560;40.542;2022-10-16T07:49:46;8.80;;;5.20;;
72715;SDS011;60830;64.560;40.542;2022-10-16T07:52:12;7.20;;;5.15;;
72715;SDS011;60830;64.560;40.542;2022-10-16T07:54:38;14.63;;;7.78;;
72715;SDS011;60830;64.560;40.542;2022-10-16T07:57:04;9.82;;;7.18;;
72715;SDS011;60830;64.560;40.542;2022-10-16T07:59:30;11.05;;;6.30;;
72715;SDS011;60830;64.560;40.542;2022-10-16T08:01:56;9.10;;;5.72;;
72715;SDS011;60830;64.560;40.542;2022-10-16T08:04:23;11.85;;;7.25;;
72715;SDS011;60830;64.560;40.542;2022-10-16T08:06:49;7.80;;;6.57;;
72715;SDS011;60830;64.560;40.542;2022-10-16T08:09:15;6.65;;;4.88;;
72715;SDS011;60830;64.560;40.542;2022-10-16T08:11:41;12.30;;;6.15;;
72715;SDS011;60830;64.560;40.542;2022-10-16T08:14:07;10.15;;;4.53;;
72715;SDS011;60830;64.560;40.542;2022-10-16T08:16:33;8.77;;;6.07;;
72715;SDS011;60830;64.560;40.542;2022-10-16T08:18:59;13.52;;;9.38;;
72715;SDS011;60830;64.560;40.542;2022-10-16T08:21:25;9.35;;;6.60;;
72715;SDS011;60830;64.560;40.542;2022-10-16T08:23:52;8.88;;;6.05;;
72715;SDS011;60830;64.560;40.542;2022-10-16T08:26:19;11.48;;;6.10;;
72715;SDS011;60830;64.560;40.542;2022-10-16T08:28:45;11.05;;;6.50;;
72715;SDS011;60830;64.560;40.542;2022-10-16T08:31:12;9.85;;;6.50;;
72715;SDS011;60830;64.560;40.542;2022-10-16T08:33:38;9.18;;;6.32;;
72715;SDS011;60830;64.560;40.542;2022-10-16T08:36:05;9.10;;;6.22;;
72715;SDS011;60830;64.560;40.542;2022-10-16T08:38:32;12.23;;;7.75;;
72715;SDS011;60830;64.560;40.542;2022-10-16T08:41:16;10.02;;;6.35;;
72715;SDS011;60830;64.560;40.542;2022-10-16T08:46:33;9.60;;;4.85;;
72715;SDS011;60830;64.560;40.542;2022-10-16T08:48:56;10.00;;;5.43;;
72715;SDS011;60830;64.560;40.542;2022-10-16T08:51:24;10.23;;;5.40;;
72715;SDS011;60830;64.560;40.542;2022-10-16T08:53:52;11.00;;;7.22;;
72715;SDS011;60830;64.560;40.542;2022-10-16T08:56:19;10.52;;;6.82;;
72715;SDS011;60830;64.560;40.542;2022-10-16T08:58:46;7.13;;;4.90;;
72715;SDS011;60830;64.560;40.542;2022-10-16T09:01:13;7.18;;;4.97;;
72715;SDS011;60830;64.560;40.542;2022-10-16T09:18:59;6.95;;;4.55;;
72715;SDS011;60830;64.560;40.542;2022-10-16T09:21:31;9.45;;;4.70;;
72715;SDS011;60830;64.560;40.542;2022-10-16T09:23:59;6.63;;;4.65;;
72715;SDS011;60830;64.560;40.542;2022-10-16T09:26:30;7.28;;;4.72;;
72715;SDS011;60830;64.560;40.542;2022-10-16T09:28:56;5.65;;;4.05;;
72715;SDS011;60830;64.560;40.542;2022-10-16T09:31:22;4.50;;;3.15;;
72715;SDS011;60830;64.560;40.542;2022-10-16T09:33:50;9.65;;;4.97;;
72715;SDS011;60830;64.560;40.542;2022-10-16T09:36:18;5.32;;;4.13;;
72715;SDS011;60830;64.560;40.542;2022-10-16T09:38:45;5.15;;;3.75;;
72715;SDS011;60830;64.560;40.542;2022-10-16T09:43:41;4.35;;;3.20;;
72715;SDS011;60830;64.560;40.542;2022-10-16T09:46:22;8.75;;;4.85;;
72715;SDS011;60830;64.560;40.542;2022-10-16T09:48:51;5.45;;;3.42;;
72715;SDS011;60830;64.560;40.542;2022-10-16T09:51:31;8.35;;;4.50;;
72715;SDS011;60830;64.560;40.542;2022-10-16T09:54:02;6.55;;;4.05;;
72715;SDS011;60830;64.560;40.542;2022-10-16T09:56:37;7.03;;;4.35;;
72715;SDS011;60830;64.560;40.542;2022-10-16T09:59:20;5.53;;;3.53;;
72715;SDS011;60830;64.560;40.542;2022-10-16T10:04:12;5.28;;;3.72;;
72715;SDS011;60830;64.560;40.542;2022-10-16T10:06:48;7.93;;;4.00;;
72715;SDS011;60830;64.560;40.542;2022-10-16T10:09:17;5.97;;;3.58;;
72715;SDS011;60830;64.560;40.542;2022-10-16T10:12:05;6.20;;;3.75;;
72715;SDS011;60830;64.560;40.542;2022-10-16T10:17:07;2.50;;;2.30;;
72715;SDS011;60830;64.560;40.542;2022-10-16T10:19:39;6.28;;;2.88;;
72715;SDS011;60830;64.560;40.542;2022-10-16T10:22:18;5.85;;;4.32;;
72715;SDS011;60830;64.560;40.542;2022-10-16T10:27:26;5.68;;;3.90;;
72715;SDS011;60830;64.560;40.542;2022-10-16T10:30:01;6.40;;;3.00;;
72715;SDS011;60830;64.560;40.542;2022-10-16T10:32:33;4.43;;;3.42;;
72715;SDS011;60830;64.560;40.542;2022-10-16T10:37:49;7.13;;;3.83;;
72715;SDS011;60830;64.560;40.542;2022-10-16T10:43:06;4.65;;;3.17;;
72715;SDS011;60830;64.560;40.542;2022-10-16T10:45:43;3.33;;;2.63;;
72715;SDS011;60830;64.560;40.542;2022-10-16T10:58:23;4.90;;;3.40;;
72715;SDS011;60830;64.560;40.542;2022-10-16T11:06:00;3.28;;;2.58;;
72715;SDS011;60830;64.560;40.542;2022-10-16T11:08:33;4.90;;;2.78;;
72715;SDS011;60830;64.560;40.542;2022-10-16T11:12:02;3.13;;;2.30;;
72715;SDS011;60830;64.560;40.542;2022-10-16T11:16:32;4.28;;;3.80;;
72715;SDS011;60830;64.560;40.542;2022-10-16T11:19:03;4.43;;;3.90;;
72715;SDS011;60830;64.560;40.542;2022-10-16T11:21:33;5.15;;;2.92;;
72715;SDS011;60830;64.560;40.542;2022-10-16T11:24:03;3.83;;;3.20;;
72715;SDS011;60830;64.560;40.542;2022-10-16T11:26:35;3.92;;;3.53;;
72715;SDS011;60830;64.560;40.542;2022-10-16T11:29:05;3.65;;;2.63;;
72715;SDS011;60830;64.560;40.542;2022-10-16T11:31:44;4.80;;;3.53;;
72715;SDS011;60830;64.560;40.542;2022-10-16T11:37:02;4.93;;;3.35;;
72715;SDS011;60830;64.560;40.542;2022-10-16T11:39:30;5.30;;;3.13;;
72715;SDS011;60830;64.560;40.542;2022-10-16T11:42:08;4.75;;;2.50;;
72715;SDS011;60830;64.560;40.542;2022-10-16T11:47:48;4.35;;;3.88;;
72715;SDS011;60830;64.560;40.542;2022-10-16T11:49:49;7.55;;;4.57;;
72715;SDS011;60830;64.560;40.542;2022-10-16T11:52:20;6.28;;;3.78;;
72715;SDS011;60830;64.560;40.542;2022-10-16T11:54:50;7.03;;;3.67;;
72715;SDS011;60830;64.560;40.542;2022-10-16T11:57:22;3.50;;;3.03;;
72715;SDS011;60830;64.560;40.542;2022-10-16T12:04:53;3.85;;;2.80;;
72715;SDS011;60830;64.560;40.542;2022-10-16T12:07:27;4.43;;;3.55;;
72715;SDS011;60830;64.560;40.542;2022-10-16T12:09:57;3.75;;;2.85;;
72715;SDS011;60830;64.560;40.542;2022-10-16T12:12:27;6.10;;;3.60;;
72715;SDS011;60830;64.560;40.542;2022-10-16T12:15:01;6.25;;;3.97;;
72715;SDS011;60830;64.560;40.542;2022-10-16T12:17:38;9.73;;;5.00;;
72715;SDS011;60830;64.560;40.542;2022-10-16T12:25:19;12.55;;;6.47;;
72715;SDS011;60830;64.560;40.542;2022-10-16T12:27:53;10.05;;;5.35;;
72715;SDS011;60830;64.560;40.542;2022-10-16T12:30:20;12.95;;;5.63;;
72715;SDS011;60830;64.560;40.542;2022-10-16T12:32:57;8.52;;;4.88;;
72715;SDS011;60830;64.560;40.542;2022-10-16T12:35:26;10.18;;;5.18;;
72715;SDS011;60830;64.560;40.542;2022-10-16T12:37:53;6.80;;;4.45;;
72715;SDS011;60830;64.560;40.542;2022-10-16T12:40:29;11.65;;;6.38;;
72715;SDS011;60830;64.560;40.542;2022-10-16T12:42:56;7.30;;;4.70;;
72715;SDS011;60830;64.560;40.542;2022-10-16T12:45:30;9.25;;;4.93;;
72715;SDS011;60830;64.560;40.542;2022-10-16T12:47:57;6.45;;;4.25;;
72715;SDS011;60830;64.560;40.542;2022-10-16T12:50:27;11.35;;;4.97;;
72715;SDS011;60830;64.560;40.542;2022-10-16T12:52:54;9.80;;;4.65;;
72715;SDS011;60830;64.560;40.542;2022-10-16T12:55:20;6.80;;;4.18;;
72715;SDS011;60830;64.560;40.542;2022-10-16T13:03:00;7.03;;;3.95;;
72715;SDS011;60830;64.560;40.542;2022-10-16T13:05:48;5.28;;;3.90;;
72715;SDS011;60830;64.560;40.542;2022-10-16T13:13:36;8.45;;;3.45;;
72715;SDS011;60830;64.560;40.542;2022-10-16T13:16:08;6.95;;;3.90;;
72715;SDS011;60830;64.560;40.542;2022-10-16T13:18:44;7.83;;;4.33;;
72715;SDS011;60830;64.560;40.542;2022-10-16T13:26:28;6.72;;;4.47;;
72715;SDS011;60830;64.560;40.542;2022-10-16T13:29:00;5.43;;;3.72;;
72715;SDS011;60830;64.560;40.542;2022-10-16T13:31:27;5.28;;;3.65;;
72715;SDS011;60830;64.560;40.542;2022-10-16T13:33:55;9.00;;;5.25;;
72715;SDS011;60830;64.560;40.542;2022-10-16T13:36:23;5.47;;;3.95;;
72715;SDS011;60830;64.560;40.542;2022-10-16T13:38:59;4.65;;;3.70;;
72715;SDS011;60830;64.560;40.542;2022-10-16T13:41:25;7.70;;;4.25;;
72715;SDS011;60830;64.560;40.542;2022-10-16T13:43:52;5.80;;;4.35;;
72715;SDS011;60830;64.560;40.542;2022-10-16T13:46:22;6.45;;;4.18;;
72715;SDS011;60830;64.560;40.542;2022-10-16T13:49:02;4.72;;;4.07;;
72715;SDS011;60830;64.560;40.542;2022-10-16T13:51:29;7.25;;;3.50;;
72715;SDS011;60830;64.560;40.542;2022-10-16T13:53:56;15.60;;;6.50;;
72715;SDS011;60830;64.560;40.542;2022-10-16T13:56:26;7.53;;;5.07;;
72715;SDS011;60830;64.560;40.542;2022-10-16T13:59:05;9.80;;;5.90;;
72715;SDS011;60830;64.560;40.542;2022-10-16T14:04:05;6.68;;;4.50;;
72715;SDS011;60830;64.560;40.542;2022-10-16T14:06:31;5.68;;;4.05;;
72715;SDS011;60830;64.560;40.542;2022-10-16T14:09:08;6.45;;;3.70;;
72715;SDS011;60830;64.560;40.542;2022-10-16T14:11:36;5.80;;;4.00;;
72715;SDS011;60830;64.560;40.542;2022-10-16T14:14:04;5.38;;;3.88;;
72715;SDS011;60830;64.560;40.542;2022-10-16T14:16:31;9.05;;;4.50;;
72715;SDS011;60830;64.560;40.542;2022-10-16T14:19:02;3.97;;;3.08;;
72715;SDS011;60830;64.560;40.542;2022-10-16T14:21:31;7.07;;;4.93;;
72715;SDS011;60830;64.560;40.542;2022-10-16T14:23:57;8.43;;;4.60;;
72715;SDS011;60830;64.560;40.542;2022-10-16T14:26:25;7.18;;;4.00;;
72715;SDS011;60830;64.560;40.542;2022-10-16T14:31:36;7.55;;;4.60;;
72715;SDS011;60830;64.560;40.542;2022-10-16T14:34:03;4.40;;;3.67;;
72715;SDS011;60830;64.560;40.542;2022-10-16T14:36:30;3.40;;;3.03;;
72715;SDS011;60830;64.560;40.542;2022-10-16T14:41:26;7.65;;;4.45;;
72715;SDS011;60830;64.560;40.542;2022-10-16T14:43:53;6.97;;;4.63;;
72715;SDS011;60830;64.560;40.542;2022-10-16T14:46:28;4.55;;;3.92;;
72715;SDS011;60830;64.560;40.542;2022-10-16T14:51:20;4.72;;;3.33;;
72715;SDS011;60830;64.560;40.542;2022-10-16T14:53:48;4.07;;;2.95;;
72715;SDS011;60830;64.560;40.542;2022-10-16T14:58:41;6.38;;;3.63;;
72715;SDS011;60830;64.560;40.542;2022-10-16T15:01:08;7.32;;;3.40;;
72715;SDS011;60830;64.560;40.542;2022-10-16T15:03:37;5.93;;;4.38;;
72715;SDS011;60830;64.560;40.542;2022-10-16T15:06:03;7.25;;;4.20;;
72715;SDS011;60830;64.560;40.542;2022-10-16T15:08:29;8.60;;;5.13;;
72715;SDS011;60830;64.560;40.542;2022-10-16T15:10:55;5.63;;;4.18;;
72715;SDS011;60830;64.560;40.542;2022-10-16T15:13:21;5.90;;;4.68;;
72715;SDS011;60830;64.560;40.542;2022-10-16T15:15:47;5.90;;;3.90;;
72715;SDS011;60830;64.560;40.542;2022-10-16T15:18:14;6.68;;;4.65;;
72715;SDS011;60830;64.560;40.542;2022-10-16T15:20:47;9.85;;;4.68;;
72715;SDS011;60830;64.560;40.542;2022-10-16T15:23:14;8.40;;;4.40;;
72715;SDS011;60830;64.560;40.542;2022-10-16T15:25:42;9.23;;;4.45;;
72715;SDS011;60830;64.560;40.542;2022-10-16T15:28:09;9.23;;;5.25;;
72715;SDS011;60830;64.560;40.542;2022-10-16T15:30:36;8.48;;;4.32;;
72715;SDS011;60830;64.560;40.542;2022-10-16T15:33:02;12.13;;;6.43;;
72715;SDS011;60830;64.560;40.542;2022-10-16T15:35:29;8.38;;;5.80;;
72715;SDS011;60830;64.560;40.542;2022-10-16T15:37:55;9.80;;;5.85;;
72715;SDS011;60830;64.560;40.542;2022-10-16T15:40:22;6.82;;;5.05;;
72715;SDS011;60830;64.560;40.542;2022-10-16T15:42:48;6.10;;;4.18;;
72715;SDS011;60830;64.560;40.542;2022-10-16T15:45:15;7.10;;;5.00;;
72715;SDS011;60830;64.560;40.542;2022-10-16T15:47:41;8.65;;;5.30;;
72715;SDS011;60830;64.560;40.542;2022-10-16T15:50:11;5.72;;;4.28;;
72715;SDS011;60830;64.560;40.542;2022-10-16T15:52:38;7.97;;;4.97;;
72715;SDS011;60830;64.560;40.542;2022-10-16T15:55:08;7.18;;;4.18;;
72715;SDS011;60830;64.560;40.542;2022-10-16T15:57:35;6.70;;;3.88;;
72715;SDS011;60830;64.560;40.542;2022-10-16T16:00:13;8.48;;;4.82;;
72715;SDS011;60830;64.560;40.542;2022-10-16T16:02:40;6.10;;;4.20;;
72715;SDS011;60830;64.560;40.542;2022-10-16T16:05:07;6.10;;;3.20;;
72715;SDS011;60830;64.560;40.542;2022-10-16T16:07:34;4.38;;;3.53;;
72715;SDS011;60830;64.560;40.542;2022-10-16T16:10:00;4.40;;;3.90;;
72715;SDS011;60830;64.560;40.542;2022-10-16T16:12:27;6.05;;;4.38;;
72715;SDS011;60830;64.560;40.542;2022-10-16T16:14:53;10.68;;;4.97;;
72715;SDS011;60830;64.560;40.542;2022-10-16T16:17:19;4.70;;;3.55;;
72715;SDS011;60830;64.560;40.542;2022-10-16T16:19:45;4.13;;;3.53;;
72715;SDS011;60830;64.560;40.542;2022-10-16T16:22:11;4.40;;;3.60;;
72715;SDS011;60830;64.560;40.542;2022-10-16T16:24:38;9.32;;;3.72;;
72715;SDS011;60830;64.560;40.542;2022-10-16T16:27:04;10.48;;;5.63;;